Time;durP1;ratioP1;P1;durP2;ratioP2;P2;SDS_P1;SDS_P2;PMS_P1;PMS_P2;Temp;Humidity;BMP_temperature;BMP_pressure;BME280_temperature;BME280_humidity;BME280_pressure;Samples;Min_cycle;Max_cycle;Signal;HPM_P1;HPM_P2
2022/03/02 00:01:25;;;;;;;6.13;5.10;;;3.10;95.80;;;;;;5017002;28;20423;-62
2022/03/02 00:03:51;;;;;;;0.45;0.45;;;3.10;94.90;;;;;;5018950;28;20025;-63
2022/03/02 00:06:17;;;;;;;1.85;1.75;;;3.00;94.60;;;;;;5018147;28;20068;-62
2022/03/02 00:08:43;;;;;;;0.20;0.20;;;2.90;94.30;;;;;;5020312;28;20061;-62
2022/03/02 00:11:10;;;;;;;0.10;0.10;;;2.80;95.10;;;;;;5024871;28;20068;-62
2022/03/02 00:13:35;;;;;;;0.85;0.85;;;2.80;95.40;;;;;;5019336;28;20048;-62
2022/03/02 00:16:01;;;;;;;0.32;0.28;;;2.80;95.70;;;;;;5033730;28;20033;-62
2022/03/02 00:18:27;;;;;;;0.10;0.10;;;2.80;96.00;;;;;;5021628;28;20116;-62
2022/03/02 00:20:52;;;;;;;0.10;0.10;;;2.90;95.40;;;;;;5021199;28;20040;-63
2022/03/02 00:23:18;;;;;;;0.10;0.10;;;2.90;94.80;;;;;;5022284;28;20072;-63
2022/03/02 00:25:44;;;;;;;0.47;0.47;;;3.00;94.30;;;;;;5028823;28;20144;-62
2022/03/02 00:28:10;;;;;;;0.10;0.10;;;3.00;95.20;;;;;;5020621;28;20022;-61
2022/03/02 00:30:35;;;;;;;1.60;1.50;;;3.00;94.10;;;;;;5022594;28;20528;-62
2022/03/02 00:33:01;;;;;;;0.90;0.90;;;3.10;93.90;;;;;;5025176;28;20521;-63
2022/03/02 00:35:27;;;;;;;0.10;0.10;;;3.10;93.80;;;;;;5018376;28;20022;-62
2022/03/02 00:37:53;;;;;;;2.33;2.20;;;3.10;94.30;;;;;;5043629;28;20447;-62
2022/03/02 00:40:19;;;;;;;0.10;0.10;;;3.20;94.30;;;;;;5046414;28;20362;-62
2022/03/02 00:42:45;;;;;;;0.20;0.20;;;3.20;93.80;;;;;;5021343;28;20018;-63
2022/03/02 00:45:11;;;;;;;1.73;1.63;;;3.30;93.10;;;;;;5031765;28;20096;-63
2022/03/02 00:47:37;;;;;;;0.82;0.77;;;3.20;93.10;;;;;;5046293;28;20104;-64
2022/03/02 00:50:04;;;;;;;2.08;1.95;;;3.00;94.10;;;;;;5022986;28;20030;-62
2022/03/02 00:52:29;;;;;;;0.10;0.10;;;2.90;95.80;;;;;;5013936;28;20104;-63
2022/03/02 00:54:55;;;;;;;0.40;0.40;;;2.90;95.40;;;;;;5029720;28;20089;-63
2022/03/02 00:57:21;;;;;;;0.10;0.10;;;3.00;96.00;;;;;;5029914;28;20047;-63
2022/03/02 00:59:47;;;;;;;0.10;0.10;;;3.00;96.40;;;;;;5019139;28;20043;-63
2022/03/02 01:02:12;;;;;;;0.10;0.10;;;3.10;95.50;;;;;;5010531;28;20541;-63
2022/03/02 01:04:38;;;;;;;0.43;0.32;;;3.10;95.90;;;;;;5013479;28;20060;-63
2022/03/02 01:07:04;;;;;;;0.20;0.20;;;3.20;95.10;;;;;;5021122;28;20030;-63
2022/03/02 01:09:30;;;;;;;2.58;2.40;;;3.20;95.00;;;;;;5029978;28;20380;-63
2022/03/02 01:11:57;;;;;;;0.40;0.40;;;3.10;94.40;;;;;;5021171;28;20038;-63
2022/03/02 01:14:23;;;;;;;0.10;0.10;;;3.00;94.20;;;;;;5011988;28;20030;-63
2022/03/02 01:16:49;;;;;;;0.20;0.20;;;2.90;94.90;;;;;;5038615;28;20117;-63
2022/03/02 01:19:15;;;;;;;0.15;0.15;;;2.90;95.90;;;;;;5031174;28;20030;-63
2022/03/02 01:21:40;;;;;;;2.20;1.45;;;2.80;97.60;;;;;;5037113;28;20026;-62
2022/03/02 01:24:06;;;;;;;0.25;0.25;;;2.80;98.00;;;;;;5006591;28;20029;-63
2022/03/02 01:26:32;;;;;;;0.40;0.40;;;2.90;96.70;;;;;;5019135;28;20025;-63
2022/03/02 01:28:58;;;;;;;0.10;0.10;;;2.90;96.50;;;;;;5029051;28;20390;-62
2022/03/02 01:31:26;;;;;;;0.10;0.10;;;3.00;95.90;;;;;;5027730;28;20148;-62
2022/03/02 01:33:52;;;;;;;0.10;0.10;;;3.00;95.80;;;;;;5005086;28;20044;-62
2022/03/02 01:36:19;;;;;;;0.10;0.10;;;3.00;95.10;;;;;;5017221;28;20037;-62
2022/03/02 01:38:45;;;;;;;1.20;1.17;;;2.90;95.60;;;;;;5020167;28;20095;-62
2022/03/02 01:41:14;;;;;;;0.30;0.30;;;2.90;95.90;;;;;;5020358;28;20075;-62
2022/03/02 01:43:40;;;;;;;0.10;0.10;;;3.00;96.30;;;;;;5020839;28;20018;-63
2022/03/02 01:46:06;;;;;;;0.20;0.20;;;3.00;95.60;;;;;;5023557;28;20545;-61
2022/03/02 01:48:32;;;;;;;0.65;0.65;;;3.00;96.70;;;;;;5020059;28;20028;-63
2022/03/02 01:50:57;;;;;;;0.10;0.10;;;3.00;96.80;;;;;;5018393;28;20041;-63
2022/03/02 01:53:23;;;;;;;0.73;0.70;;;3.00;97.50;;;;;;5015884;28;20056;-63
2022/03/02 01:55:49;;;;;;;0.22;0.22;;;3.00;98.10;;;;;;5018231;28;20037;-63
2022/03/02 01:58:14;;;;;;;1.75;1.65;;;3.00;98.90;;;;;;5013141;28;20025;-62
2022/03/02 02:00:40;;;;;;;0.10;0.10;;;3.00;99.00;;;;;;5018079;28;20021;-63
2022/03/02 02:03:06;;;;;;;0.22;0.22;;;2.90;99.90;;;;;;5017717;28;20431;-62
2022/03/02 02:05:31;;;;;;;0.10;0.10;;;2.90;99.90;;;;;;5019186;28;20026;-63
2022/03/02 02:07:57;;;;;;;0.10;0.10;;;2.80;99.90;;;;;;5009266;28;20480;-63
2022/03/02 02:10:23;;;;;;;0.13;0.13;;;2.80;99.90;;;;;;5025549;28;20079;-63
2022/03/02 02:12:49;;;;;;;0.17;0.17;;;2.80;99.90;;;;;;5012183;28;20805;-63
2022/03/02 02:15:14;;;;;;;1.10;1.05;;;2.80;99.20;;;;;;5002937;28;20550;-63
2022/03/02 02:17:41;;;;;;;0.10;0.10;;;2.70;99.90;;;;;;5036799;28;20024;-63
2022/03/02 02:20:08;;;;;;;1.30;1.30;;;2.70;99.90;;;;;;5023746;28;20033;-63
2022/03/02 02:22:46;;;;;;;0.30;0.30;;;2.60;99.90;;;;;;5018266;28;20030;-63
2022/03/02 02:25:13;;;;;;;0.20;0.20;;;2.50;99.90;;;;;;5024003;28;20033;-63
2022/03/02 02:27:40;;;;;;;0.10;0.10;;;2.60;99.90;;;;;;5021351;28;20017;-63
2022/03/02 02:30:07;;;;;;;0.30;0.30;;;3.10;99.90;;;;;;5016087;28;20030;-63
2022/03/02 02:32:35;;;;;;;0.38;0.38;;;2.40;99.90;;;;;;5020112;28;20084;-64
2022/03/02 02:35:00;;;;;;;0.20;0.20;;;2.30;99.90;;;;;;5019493;28;20463;-63
2022/03/02 02:37:26;;;;;;;0.10;0.10;;;2.20;99.90;;;;;;5017346;28;20100;-63
2022/03/02 02:40:00;;;;;;;0.10;0.10;;;2.20;99.90;;;;;;5014803;28;20035;-63
2022/03/02 02:42:26;;;;;;;0.10;0.10;;;2.20;99.90;;;;;;5022791;28;20032;-63
2022/03/02 02:44:54;;;;;;;0.38;0.38;;;2.30;99.90;;;;;;5016624;28;20476;-63
2022/03/02 02:47:20;;;;;;;0.17;0.17;;;2.30;99.90;;;;;;5016479;28;20098;-63
2022/03/02 02:49:46;;;;;;;0.10;0.10;;;2.20;99.90;;;;;;5023755;28;20061;-63
2022/03/02 02:52:12;;;;;;;0.20;0.20;;;2.20;99.90;;;;;;5019318;28;20106;-63
2022/03/02 02:54:40;;;;;;;0.68;0.68;;;2.20;99.90;;;;;;5021581;28;20045;-63
2022/03/02 02:57:06;;;;;;;0.30;0.30;;;2.20;99.90;;;;;;5017166;28;20746;-63
2022/03/02 02:59:32;;;;;;;0.10;0.10;;;2.20;99.90;;;;;;5023131;28;20029;-63
2022/03/02 03:01:58;;;;;;;0.10;0.10;;;2.10;99.90;;;;;;5026413;28;20014;-63
2022/03/02 03:04:23;;;;;;;0.22;0.22;;;2.10;99.90;;;;;;5023650;28;20444;-62
2022/03/02 03:06:49;;;;;;;0.10;0.10;;;2.20;99.90;;;;;;5029790;28;20028;-62
2022/03/02 03:09:18;;;;;;;0.10;0.10;;;2.10;99.90;;;;;;5032158;28;20064;-62
2022/03/02 03:11:44;;;;;;;0.10;0.10;;;2.10;99.90;;;;;;5066043;22;20048;-67
2022/03/02 03:14:11;;;;;;;0.10;0.10;;;2.20;99.90;;;;;;5042867;28;20426;-67
2022/03/02 03:16:37;;;;;;;0.10;0.10;;;2.20;99.90;;;;;;5039649;28;20562;-68
2022/03/02 03:19:03;;;;;;;0.10;0.10;;;2.20;99.90;;;;;;5049610;28;20028;-69
2022/03/02 03:21:29;;;;;;;0.38;0.38;;;2.20;99.90;;;;;;5032490;28;20029;-67
2022/03/02 03:23:54;;;;;;;0.15;0.15;;;2.10;99.90;;;;;;5022169;28;20037;-67
2022/03/02 03:26:20;;;;;;;0.10;0.10;;;2.10;99.90;;;;;;5028321;28;20025;-66
2022/03/02 03:28:46;;;;;;;0.15;0.15;;;2.00;99.90;;;;;;5010659;28;20025;-67
2022/03/02 03:31:11;;;;;;;0.68;0.68;;;2.00;99.90;;;;;;5028574;28;20033;-68
2022/03/02 03:33:37;;;;;;;0.10;0.10;;;2.00;99.90;;;;;;5034233;28;20619;-67
2022/03/02 03:36:03;;;;;;;1.38;1.27;;;2.00;99.90;;;;;;5023859;28;20044;-68
2022/03/02 03:38:29;;;;;;;0.10;0.10;;;2.00;99.90;;;;;;5016686;28;20022;-67
2022/03/02 03:40:54;;;;;;;0.20;0.20;;;2.00;99.90;;;;;;5023441;28;20022;-68
2022/03/02 03:43:20;;;;;;;0.10;0.10;;;2.10;99.90;;;;;;5027274;28;20495;-68
2022/03/02 03:45:46;;;;;;;0.20;0.20;;;2.10;99.90;;;;;;5025943;28;20030;-67
2022/03/02 03:48:11;;;;;;;0.15;0.15;;;2.00;99.90;;;;;;5025952;28;20044;-67
2022/03/02 03:50:37;;;;;;;2.40;2.30;;;1.80;99.90;;;;;;5024451;28;20033;-67
2022/03/02 03:53:03;;;;;;;0.10;0.10;;;1.60;99.90;;;;;;5026011;28;20037;-67
2022/03/02 03:55:29;;;;;;;0.10;0.10;;;1.60;99.90;;;;;;5021272;28;20055;-67
2022/03/02 03:57:54;;;;;;;0.10;0.10;;;1.50;99.90;;;;;;5024790;28;20116;-67
2022/03/02 04:00:20;;;;;;;0.10;0.10;;;1.50;99.90;;;;;;5025781;28;20636;-67
2022/03/02 04:02:46;;;;;;;0.30;0.30;;;1.60;99.90;;;;;;5024539;28;20471;-69
2022/03/02 04:05:13;;;;;;;0.10;0.10;;;1.70;99.90;;;;;;5029940;28;20037;-67
2022/03/02 04:07:38;;;;;;;0.10;0.10;;;1.70;99.90;;;;;;5025390;28;20029;-67
2022/03/02 04:10:09;;;;;;;0.10;0.10;;;1.60;99.90;;;;;;5029195;28;20063;-67
2022/03/02 04:12:35;;;;;;;3.72;1.15;;;1.50;99.90;;;;;;5033616;28;20025;-67
2022/03/02 04:15:01;;;;;;;2.17;1.70;;;1.50;99.90;;;;;;5022894;28;20091;-67
2022/03/02 04:17:27;;;;;;;0.45;0.45;;;1.50;99.90;;;;;;5026056;28;20033;-67
2022/03/02 04:19:53;;;;;;;0.45;0.45;;;1.40;99.90;;;;;;5022120;28;20486;-67
2022/03/02 04:22:18;;;;;;;0.22;0.22;;;1.50;99.90;;;;;;5027175;28;20141;-66
2022/03/02 04:24:45;;;;;;;0.68;0.68;;;1.50;99.90;;;;;;5028577;28;20049;-68
2022/03/02 04:27:11;;;;;;;0.10;0.10;;;1.40;99.90;;;;;;5023901;28;20839;-66
2022/03/02 04:29:37;;;;;;;0.30;0.30;;;1.50;99.90;;;;;;5025316;28;20108;-66
2022/03/02 04:32:03;;;;;;;0.10;0.10;;;1.40;99.90;;;;;;5025747;28;20025;-69
2022/03/02 04:34:29;;;;;;;1.30;1.30;;;1.40;99.90;;;;;;5027533;28;20029;-67
2022/03/02 04:36:55;;;;;;;0.10;0.10;;;1.40;99.90;;;;;;5023338;28;20025;-67
2022/03/02 04:39:20;;;;;;;11.88;2.75;;;1.40;99.90;;;;;;5022749;28;20048;-67
2022/03/02 04:41:46;;;;;;;0.63;0.63;;;1.40;99.90;;;;;;5028137;28;20031;-67
2022/03/02 04:44:12;;;;;;;0.55;0.55;;;1.40;99.90;;;;;;5026968;28;20403;-67
2022/03/02 04:46:37;;;;;;;0.82;0.63;;;1.40;99.90;;;;;;5025722;28;20380;-67
2022/03/02 04:49:10;;;;;;;0.10;0.10;;;1.40;99.90;;;;;;5022422;28;20034;-68
2022/03/02 04:51:40;;;;;;;0.10;0.10;;;1.50;99.90;;;;;;5023296;28;20075;-68
2022/03/02 04:54:06;;;;;;;0.15;0.15;;;1.50;99.90;;;;;;5022479;28;20803;-67
2022/03/02 04:56:34;;;;;;;0.10;0.10;;;1.50;99.90;;;;;;5024836;28;20033;-67
2022/03/02 04:59:03;;;;;;;0.20;0.20;;;1.50;99.90;;;;;;5026077;28;20559;-68
2022/03/02 05:01:29;;;;;;;0.10;0.10;;;1.50;99.90;;;;;;5022213;28;20021;-68
2022/03/02 05:03:54;;;;;;;0.65;0.65;;;1.50;99.90;;;;;;5022773;28;20029;-69
2022/03/02 05:06:20;;;;;;;0.10;0.10;;;1.40;99.90;;;;;;5042543;28;20087;-68
2022/03/02 05:08:46;;;;;;;0.28;0.28;;;1.40;99.90;;;;;;5023215;28;20125;-68
2022/03/02 05:11:11;;;;;;;0.30;0.30;;;1.40;99.90;;;;;;4986840;28;1108235;-68
2022/03/02 05:13:37;;;;;;;0.35;0.35;;;1.30;99.90;;;;;;5026387;28;20094;-68
2022/03/02 05:16:03;;;;;;;0.25;0.25;;;1.50;99.90;;;;;;5027648;28;20045;-68
2022/03/02 05:18:29;;;;;;;0.30;0.30;;;1.40;99.90;;;;;;5011171;28;20472;-67
2022/03/02 05:20:54;;;;;;;0.30;0.30;;;1.30;99.90;;;;;;5023194;28;20029;-67
2022/03/02 05:23:20;;;;;;;0.17;0.17;;;1.40;99.90;;;;;;5030195;28;20479;-68
2022/03/02 05:25:45;;;;;;;0.20;0.20;;;1.30;99.90;;;;;;5029846;28;20030;-68
2022/03/02 05:28:11;;;;;;;7.82;7.18;;;1.20;99.90;;;;;;5024056;28;20060;-68
2022/03/02 05:30:37;;;;;;;4.20;3.95;;;1.10;99.90;;;;;;5025726;28;20035;-67
2022/03/02 05:33:02;;;;;;;0.95;0.95;;;1.00;99.90;;;;;;5024932;28;20025;-68
2022/03/02 05:35:28;;;;;;;0.30;0.30;;;1.00;99.90;;;;;;5007258;28;20033;-67
2022/03/02 05:37:54;;;;;;;0.20;0.20;;;0.50;99.90;;;;;;5027247;28;20027;-66
2022/03/02 05:40:21;;;;;;;0.57;0.57;;;1.10;99.90;;;;;;5022044;28;20022;-68
2022/03/02 05:42:47;;;;;;;0.20;0.20;;;1.20;99.90;;;;;;5026833;28;20052;-70
2022/03/02 05:45:12;;;;;;;6.85;2.72;;;1.30;99.90;;;;;;5023684;28;20487;-67
2022/03/02 05:47:39;;;;;;;0.10;0.10;;;1.30;99.90;;;;;;5009431;28;20387;-67
2022/03/02 05:50:07;;;;;;;0.10;0.10;;;1.30;99.90;;;;;;5020403;28;20037;-68
2022/03/02 05:52:33;;;;;;;0.10;0.10;;;1.30;99.90;;;;;;5018042;28;20091;-67
2022/03/02 05:54:58;;;;;;;0.28;0.28;;;1.40;99.90;;;;;;5022779;28;20037;-68
2022/03/02 05:57:24;;;;;;;6.60;2.75;;;1.40;99.90;;;;;;5025201;28;20029;-73
2022/03/02 05:59:50;;;;;;;5.47;4.78;;;1.40;99.90;;;;;;5028408;28;20390;-69
2022/03/02 06:02:15;;;;;;;0.52;0.52;;;1.40;99.90;;;;;;5021671;28;20029;-70
2022/03/02 06:04:41;;;;;;;2.58;2.38;;;1.50;99.90;;;;;;5027700;28;20025;-67
2022/03/02 06:07:07;;;;;;;0.63;0.63;;;1.50;99.90;;;;;;5025710;28;20033;-68
2022/03/02 06:09:33;;;;;;;0.20;0.20;;;1.60;99.90;;;;;;5021084;28;20479;-68
2022/03/02 06:11:59;;;;;;;0.10;0.10;;;1.60;99.90;;;;;;5026006;28;20121;-67
2022/03/02 06:14:25;;;;;;;3.30;1.75;;;1.60;99.90;;;;;;5028377;28;20497;-68
2022/03/02 06:16:50;;;;;;;0.70;0.70;;;1.60;99.90;;;;;;5020618;28;20088;-67
2022/03/02 06:19:16;;;;;;;0.50;0.50;;;1.60;99.90;;;;;;5021499;28;20525;-67
2022/03/02 06:21:44;;;;;;;0.10;0.10;;;1.70;99.90;;;;;;5021917;28;20545;-68
2022/03/02 06:24:10;;;;;;;9.23;4.15;;;1.70;99.90;;;;;;5027960;28;20024;-68
2022/03/02 06:26:36;;;;;;;0.45;0.45;;;1.70;99.90;;;;;;5012290;28;20040;-72
2022/03/02 06:29:02;;;;;;;1.55;1.45;;;1.40;99.90;;;;;;5032125;28;20127;-74
2022/03/02 06:31:28;;;;;;;0.57;0.57;;;1.00;99.90;;;;;;5032704;28;20453;-68
2022/03/02 06:33:54;;;;;;;0.10;0.10;;;1.10;99.90;;;;;;5025923;28;20088;-71
2022/03/02 06:36:20;;;;;;;1.38;1.33;;;1.20;99.90;;;;;;5027872;28;20029;-70
2022/03/02 06:38:46;;;;;;;0.10;0.10;;;1.40;99.90;;;;;;5030760;28;20025;-68
2022/03/02 06:41:35;;;;;;;0.10;0.10;;;1.60;99.90;;;;;;5028093;28;20442;-69
2022/03/02 06:44:09;;;;;;;0.10;0.10;;;1.70;99.90;;;;;;5024486;28;20021;-68
2022/03/02 06:46:52;;;;;;;0.65;0.65;;;1.60;99.90;;;;;;5025385;28;20024;-69
2022/03/02 06:49:25;;;;;;;0.10;0.10;;;1.60;99.90;;;;;;5012928;28;20056;-70
2022/03/02 06:51:57;;;;;;;0.20;0.20;;;1.60;99.90;;;;;;5023543;28;20048;-68
2022/03/02 06:54:27;;;;;;;0.25;0.25;;;1.70;99.90;;;;;;5021122;28;20067;-69
2022/03/02 06:56:57;;;;;;;4.63;1.98;;;1.80;99.90;;;;;;5034021;28;20033;-69
2022/03/02 06:59:42;;;;;;;0.70;0.70;;;1.80;99.90;;;;;;5027477;28;20040;-69
2022/03/02 07:02:08;;;;;;;3.60;3.40;;;1.90;99.90;;;;;;5005811;28;20028;-69
2022/03/02 07:04:39;;;;;;;0.70;0.68;;;1.90;99.90;;;;;;5029131;28;20543;-70
2022/03/02 07:07:05;;;;;;;4.90;4.55;;;2.10;99.90;;;;;;5033765;28;20532;-70
2022/03/02 07:09:33;;;;;;;0.47;0.47;;;2.10;99.90;;;;;;5027912;28;20029;-68
2022/03/02 07:12:00;;;;;;;0.55;0.55;;;2.20;99.90;;;;;;5029088;28;20099;-68
2022/03/02 07:14:29;;;;;;;0.10;0.10;;;2.20;99.90;;;;;;5027611;28;20487;-69
2022/03/02 07:17:00;;;;;;;1.05;1.05;;;2.40;99.90;;;;;;5030509;28;20029;-69
2022/03/02 07:19:26;;;;;;;0.10;0.10;;;2.20;99.90;;;;;;5008334;28;20095;-68
2022/03/02 07:21:52;;;;;;;1.30;1.27;;;2.20;99.90;;;;;;5026698;28;20362;-68
2022/03/02 07:24:19;;;;;;;0.20;0.20;;;2.20;99.90;;;;;;5023750;28;20034;-68
2022/03/02 07:26:51;;;;;;;2.65;1.08;;;2.20;99.90;;;;;;5027893;28;20052;-68
2022/03/02 07:29:19;;;;;;;0.73;0.73;;;2.30;99.90;;;;;;5021243;28;20056;-69
2022/03/02 07:31:46;;;;;;;0.43;0.35;;;2.40;99.90;;;;;;5029324;28;20503;-71
2022/03/02 07:34:14;;;;;;;0.10;0.10;;;2.40;99.90;;;;;;5031066;28;20033;-69
2022/03/02 07:36:41;;;;;;;0.10;0.10;;;2.60;99.90;;;;;;5027390;28;20065;-68
2022/03/02 07:39:09;;;;;;;0.10;0.10;;;2.50;99.90;;;;;;5029848;28;20112;-68
2022/03/02 07:41:35;;;;;;;0.20;0.20;;;2.50;99.90;;;;;;5031247;28;20475;-71
2022/03/02 07:44:01;;;;;;;0.10;0.10;;;2.50;99.90;;;;;;5031033;28;20026;-69
2022/03/02 07:46:29;;;;;;;0.10;0.10;;;2.60;99.90;;;;;;5023566;28;20068;-73
2022/03/02 07:48:55;;;;;;;0.20;0.20;;;2.70;99.90;;;;;;5023601;28;20025;-69
2022/03/02 07:51:22;;;;;;;0.85;0.85;;;2.60;99.90;;;;;;5023080;28;20694;-69
2022/03/02 07:53:50;;;;;;;0.10;0.10;;;2.70;99.90;;;;;;5029577;28;20129;-69
2022/03/02 07:56:18;;;;;;;3.70;3.42;;;2.70;99.90;;;;;;5030618;28;20503;-70
2022/03/02 07:58:44;;;;;;;0.20;0.20;;;2.70;99.90;;;;;;5028025;28;20380;-73
2022/03/02 08:01:20;;;;;;;0.17;0.17;;;2.70;99.90;;;;;;5025326;28;20024;-68
2022/03/02 08:03:45;;;;;;;0.20;0.20;;;2.70;99.90;;;;;;5008142;28;20120;-70
2022/03/02 08:06:12;;;;;;;0.10;0.10;;;2.80;99.90;;;;;;5022892;28;20093;-68
2022/03/02 08:08:38;;;;;;;0.10;0.10;;;3.00;99.90;;;;;;5027355;28;20056;-72
2022/03/02 08:11:05;;;;;;;0.10;0.10;;;3.20;99.90;;;;;;5030249;28;20056;-73
2022/03/02 08:13:33;;;;;;;0.52;0.52;;;3.20;99.90;;;;;;5026731;28;20478;-69
2022/03/02 08:15:59;;;;;;;2.00;1.90;;;3.30;99.90;;;;;;5027519;28;20554;-70
2022/03/02 08:18:25;;;;;;;0.20;0.20;;;3.30;99.90;;;;;;5011629;28;20052;-71
2022/03/02 08:20:54;;;;;;;0.75;0.75;;;3.20;99.90;;;;;;5028687;28;20468;-69
2022/03/02 08:23:21;;;;;;;0.20;0.20;;;3.10;99.90;;;;;;5027880;28;20372;-70
2022/03/02 08:25:51;;;;;;;0.63;0.63;;;3.10;99.90;;;;;;5020470;28;20030;-69
2022/03/02 08:28:18;;;;;;;0.10;0.10;;;3.30;99.90;;;;;;5028582;28;20107;-69
2022/03/02 08:30:45;;;;;;;3.83;2.45;;;3.40;99.90;;;;;;5023224;28;20470;-70
2022/03/02 08:33:18;;;;;;;0.10;0.10;;;3.50;99.90;;;;;;5024876;28;20387;-70
2022/03/02 08:35:44;;;;;;;0.10;0.10;;;3.50;99.90;;;;;;5030192;28;20357;-74
2022/03/02 08:38:10;;;;;;;0.82;0.82;;;3.60;99.90;;;;;;5004821;28;20095;-70
2022/03/02 08:40:37;;;;;;;0.20;0.20;;;3.50;99.90;;;;;;5028624;28;20426;-71
2022/03/02 08:43:05;;;;;;;0.38;0.38;;;3.70;99.90;;;;;;5028818;28;20029;-70
2022/03/02 08:45:31;;;;;;;2.05;1.95;;;3.90;99.90;;;;;;5021730;28;20021;-68
2022/03/02 08:48:01;;;;;;;0.10;0.10;;;4.00;99.90;;;;;;5020930;28;20022;-69
2022/03/02 08:50:27;;;;;;;0.20;0.20;;;4.10;99.90;;;;;;5035135;28;20023;-71
2022/03/02 08:52:55;;;;;;;0.45;0.45;;;4.00;99.90;;;;;;5032868;28;20108;-69
2022/03/02 08:55:22;;;;;;;0.38;0.38;;;4.20;99.90;;;;;;5024651;28;20514;-70
2022/03/02 08:57:49;;;;;;;0.20;0.20;;;4.40;99.90;;;;;;5026074;28;20493;-71
2022/03/02 09:00:15;;;;;;;0.10;0.10;;;4.40;99.90;;;;;;5010840;28;20049;-73
2022/03/02 09:02:42;;;;;;;1.90;1.83;;;4.50;99.90;;;;;;5029734;28;20018;-69
2022/03/02 09:05:08;;;;;;;0.30;0.30;;;4.50;99.90;;;;;;5028492;28;20108;-72
2022/03/02 09:07:34;;;;;;;0.10;0.10;;;4.70;99.90;;;;;;5025714;28;20067;-69
2022/03/02 09:10:01;;;;;;;2.63;2.53;;;4.80;99.90;;;;;;5035537;28;20029;-69
2022/03/02 09:12:27;;;;;;;0.10;0.10;;;4.80;99.90;;;;;;5035481;22;20518;-66
2022/03/02 09:14:55;;;;;;;0.10;0.10;;;4.80;99.90;;;;;;5021953;28;20593;-66
2022/03/02 09:17:25;;;;;;;0.10;0.10;;;4.80;99.90;;;;;;5027892;28;20033;-66
2022/03/02 09:20:00;;;;;;;0.30;0.30;;;4.90;99.90;;;;;;5024287;28;20100;-66
2022/03/02 09:22:27;;;;;;;0.10;0.10;;;5.00;99.60;;;;;;5040122;28;20028;-68
2022/03/02 09:24:53;;;;;;;0.50;0.50;;;5.00;99.90;;;;;;5035356;28;20100;-67
2022/03/02 09:27:20;;;;;;;0.10;0.10;;;5.10;99.00;;;;;;5042013;28;20013;-66
2022/03/02 09:29:48;;;;;;;0.10;0.10;;;5.30;99.30;;;;;;5048416;28;20055;-65
2022/03/02 09:32:14;;;;;;;0.10;0.10;;;5.30;98.30;;;;;;5040613;28;20040;-65
2022/03/02 09:34:45;;;;;;;0.10;0.10;;;5.50;98.70;;;;;;5045060;28;20025;-65
2022/03/02 09:37:15;;;;;;;0.10;0.10;;;5.50;97.80;;;;;;5040225;28;20361;-66
2022/03/02 09:39:42;;;;;;;0.10;0.10;;;5.50;97.20;;;;;;5047000;28;20077;-66
2022/03/02 09:42:19;;;;;;;0.43;0.43;;;5.30;97.20;;;;;;5041376;28;20013;-65
2022/03/02 09:44:58;;;;;;;2.33;2.15;;;5.50;98.00;;;;;;5047405;28;20025;-64
2022/03/02 09:47:24;;;;;;;0.10;0.10;;;5.90;96.50;;;;;;5037776;28;20039;-65
2022/03/02 09:49:55;;;;;;;0.20;0.20;;;5.80;96.10;;;;;;5043764;28;20487;-65
2022/03/02 09:52:23;;;;;;;0.10;0.10;;;6.00;95.90;;;;;;5043970;28;20040;-66
2022/03/02 09:54:57;;;;;;;0.20;0.20;;;6.00;93.70;;;;;;5021032;28;20458;-65
2022/03/02 09:57:23;;;;;;;0.10;0.10;;;6.10;94.10;;;;;;5023122;28;20033;-65
2022/03/02 09:59:52;;;;;;;0.88;0.80;;;6.20;92.60;;;;;;5044120;28;20072;-65
2022/03/02 10:02:34;;;;;;;0.30;0.30;;;6.30;91.70;;;;;;5042339;28;20113;-65
2022/03/02 10:05:05;;;;;;;0.60;0.60;;;6.50;91.50;;;;;;5053094;28;20048;-66
2022/03/02 10:07:35;;;;;;;0.10;0.10;;;6.70;89.80;;;;;;5048964;28;20033;-66
2022/03/02 10:10:11;;;;;;;0.10;0.10;;;6.70;89.70;;;;;;5046537;28;20025;-67
2022/03/02 10:12:38;;;;;;;0.10;0.10;;;6.80;86.90;;;;;;5042760;28;20509;-66
2022/03/02 10:15:10;;;;;;;0.10;0.10;;;6.90;87.80;;;;;;5049279;28;20040;-66
2022/03/02 10:17:38;;;;;;;0.20;0.20;;;7.30;86.50;;;;;;5047588;28;20053;-66
2022/03/02 10:20:07;;;;;;;0.20;0.20;;;7.50;84.20;;;;;;5051260;28;20033;-65
2022/03/02 10:22:36;;;;;;;0.10;0.10;;;7.50;83.10;;;;;;5043602;28;20024;-65
2022/03/02 10:25:08;;;;;;;0.10;0.10;;;7.50;81.20;;;;;;5047010;28;20037;-67
2022/03/02 10:27:59;;;;;;;0.10;0.10;;;7.50;80.30;;;;;;5024990;28;20116;-65
2022/03/02 10:30:27;;;;;;;0.10;0.10;;;7.60;79.80;;;;;;5047802;28;20029;-65
2022/03/02 10:32:57;;;;;;;0.22;0.22;;;7.10;80.70;;;;;;5045019;28;20478;-65
2022/03/02 10:35:24;;;;;;;0.10;0.10;;;7.40;82.60;;;;;;5051759;28;20116;-65
2022/03/02 10:38:02;;;;;;;1.25;1.25;;;7.60;79.80;;;;;;5027499;28;20064;-64
2022/03/02 10:40:32;;;;;;;0.10;0.10;;;7.80;77.60;;;;;;5050920;28;20074;-63
2022/03/02 10:43:01;;;;;;;0.10;0.10;;;7.30;76.70;;;;;;5047237;28;20031;-64
2022/03/02 10:45:30;;;;;;;0.20;0.20;;;7.40;77.90;;;;;;5040784;28;20032;-65
2022/03/02 10:48:21;;;;;;;0.45;0.45;;;7.30;78.90;;;;;;5046875;28;20025;-64
2022/03/02 10:50:51;;;;;;;0.50;0.50;;;7.20;78.20;;;;;;5050287;28;20021;-65
2022/03/02 10:53:19;;;;;;;1.58;1.55;;;6.90;78.20;;;;;;5049170;28;20021;-64
2022/03/02 10:55:49;;;;;;;0.35;0.35;;;7.20;79.60;;;;;;5047452;28;20067;-65
2022/03/02 10:58:17;;;;;;;0.20;0.20;;;7.20;78.40;;;;;;5050711;28;20029;-65
2022/03/02 11:00:44;;;;;;;0.10;0.10;;;7.30;78.60;;;;;;5050677;28;20379;-65
2022/03/02 11:03:10;;;;;;;0.25;0.25;;;7.30;77.50;;;;;;5051000;28;20541;-64
2022/03/02 11:05:36;;;;;;;0.10;0.10;;;7.40;78.20;;;;;;5047895;28;20032;-63
2022/03/02 11:08:03;;;;;;;0.30;0.30;;;7.40;76.00;;;;;;5048415;28;20037;-64
2022/03/02 11:10:35;;;;;;;0.10;0.10;;;7.10;76.10;;;;;;5039283;28;20075;-64
2022/03/02 11:13:05;;;;;;;0.20;0.20;;;7.10;77.70;;;;;;5046481;28;20045;-65
2022/03/02 11:16:17;;;;;;;0.10;0.10;;;7.30;77.90;;;;;;5040060;28;20057;-65
2022/03/02 11:18:52;;;;;;;0.10;0.10;;;7.50;76.00;;;;;;4944443;29;20039;-65
2022/03/02 11:21:21;;;;;;;0.10;0.10;;;7.40;76.40;;;;;;4950123;29;20087;-64
2022/03/02 11:23:56;;;;;;;0.40;0.40;;;7.50;76.00;;;;;;4950745;29;20086;-64
2022/03/02 11:26:26;;;;;;;0.10;0.10;;;7.50;75.00;;;;;;4933638;29;20497;-65
2022/03/02 11:28:57;;;;;;;0.10;0.10;;;7.80;75.70;;;;;;4951788;28;20043;-65
2022/03/02 11:31:40;;;;;;;1.60;1.50;;;7.80;74.80;;;;;;4953550;28;20031;-65
2022/03/02 11:34:20;;;;;;;0.40;0.40;;;8.00;74.10;;;;;;4951524;28;20043;-65
2022/03/02 11:36:50;;;;;;;0.10;0.10;;;8.10;72.60;;;;;;4940131;28;21001;-64
2022/03/02 11:39:19;;;;;;;0.10;0.10;;;8.30;72.00;;;;;;4956479;28;20074;-64
2022/03/02 11:41:46;;;;;;;0.10;0.10;;;8.40;72.00;;;;;;4955254;28;20043;-64
2022/03/02 11:44:31;;;;;;;1.40;1.33;;;8.30;71.70;;;;;;4935363;28;20086;-66
2022/03/02 11:46:59;;;;;;;0.10;0.10;;;8.50;71.00;;;;;;4956762;28;20031;-64
2022/03/02 11:49:47;;;;;;;0.10;0.10;;;8.60;70.90;;;;;;4998623;28;20045;-66
2022/03/02 11:52:19;;;;;;;1.17;1.17;;;8.80;69.20;;;;;;5041841;28;20044;-65
2022/03/02 11:54:47;;;;;;;0.10;0.10;;;8.70;68.90;;;;;;5041998;28;20029;-66
2022/03/02 11:57:15;;;;;;;4.88;3.75;;;8.90;69.40;;;;;;5044483;28;20170;-66
2022/03/02 11:59:42;;;;;;;6.32;5.78;;;9.00;67.40;;;;;;5029383;28;20032;-64
2022/03/02 12:02:25;;;;;;;1.08;0.82;;;9.00;66.50;;;;;;5027681;28;20051;-65
2022/03/02 12:05:00;;;;;;;0.52;0.52;;;9.00;66.50;;;;;;5045104;28;20025;-65
2022/03/02 12:07:34;;;;;;;0.43;0.43;;;8.90;65.80;;;;;;5047694;28;20017;-66
2022/03/02 12:10:00;;;;;;;0.20;0.20;;;9.00;65.30;;;;;;5046245;28;20052;-66
2022/03/02 12:12:26;;;;;;;0.08;0.08;;;8.90;64.80;;;;;;5046830;28;20569;-66
2022/03/02 12:14:56;;;;;;;0.50;0.50;;;9.00;64.70;;;;;;5047866;28;20435;-65
2022/03/02 12:17:23;;;;;;;0.52;0.52;;;9.10;64.80;;;;;;5044360;28;20099;-65
2022/03/02 12:19:55;;;;;;;0.20;0.20;;;9.00;63.40;;;;;;5039911;28;20028;-64
2022/03/02 12:22:21;;;;;;;0.10;0.10;;;9.10;63.20;;;;;;5037460;28;20150;-65
2022/03/02 12:24:48;;;;;;;0.10;0.10;;;9.30;63.40;;;;;;5043032;28;20040;-66
2022/03/02 12:27:15;;;;;;;0.30;0.30;;;9.50;62.30;;;;;;5044789;28;20029;-66
2022/03/02 12:29:42;;;;;;;0.28;0.28;;;9.70;61.50;;;;;;5046809;28;20032;-66
2022/03/02 12:32:16;;;;;;;0.10;0.10;;;9.70;61.10;;;;;;5049031;28;20112;-66
2022/03/02 12:34:45;;;;;;;0.20;0.20;;;9.90;60.40;;;;;;5046295;28;20051;-64
2022/03/02 12:37:12;;;;;;;0.10;0.10;;;9.90;59.90;;;;;;5040551;28;20029;-66
2022/03/02 12:39:39;;;;;;;0.10;0.10;;;10.10;58.50;;;;;;5042711;28;20079;-66
2022/03/02 12:42:08;;;;;;;0.10;0.10;;;10.10;58.40;;;;;;5034776;28;20094;-66
2022/03/02 12:44:38;;;;;;;0.47;0.47;;;10.10;56.80;;;;;;5040194;28;20107;-65
2022/03/02 12:47:08;;;;;;;0.10;0.10;;;10.00;57.40;;;;;;5045785;28;20036;-65
2022/03/02 12:49:36;;;;;;;0.10;0.10;;;9.70;59.50;;;;;;5046360;28;20047;-65
2022/03/02 12:52:04;;;;;;;0.73;0.73;;;9.60;59.00;;;;;;5049330;28;20832;-64
2022/03/02 12:54:32;;;;;;;0.10;0.10;;;9.40;58.80;;;;;;5042645;28;20033;-64
2022/03/02 12:57:00;;;;;;;0.10;0.10;;;9.30;58.90;;;;;;5048604;28;20028;-66
2022/03/02 12:59:27;;;;;;;2.08;1.98;;;9.30;59.30;;;;;;5042881;28;20624;-66
2022/03/02 13:01:53;;;;;;;0.30;0.30;;;9.20;58.80;;;;;;5039108;28;20025;-65